RYR78TL EDDM-EGLL
Flight info
| Callsign | RYR78TL |
|---|---|
| Flight time | N/A |
| Altitude | 34000 |
| Route | GIVMI6S GIVMI Y101 INBED DCT REKDI DCT LOHRE DCT ADKUV DCT DENUT L608 LOGAN |
| Aircraft | B738/M-SDE2E3FGHIRWXY/LB1 |
Departure
| Time | 2026-05-07 19:17 |
|---|---|
| Airport | Munich Airport (EDDM) |
Arrival
| Time | N/A |
|---|---|
| Airport | London Heathrow Airport (EGLL) |
| Time | Latitude | Longitude | Altitude | Speed | Heading |
|---|---|---|---|---|---|
| 2026-05-07 18:27 | 48.35761 | 11.78207 | 1473 ft | 0 kts | 83° |
| 2026-05-07 19:00 | 48.35759 | 11.78184 | 1447 ft | 2 kts | 83° |
| 2026-05-07 19:00 | 48.35757 | 11.78160 | 1472 ft | 2 kts | 83° |
| 2026-05-07 19:01 | 48.35755 | 11.78135 | 1473 ft | 2 kts | 81° |
| 2026-05-07 19:01 | 48.35751 | 11.78112 | 1463 ft | 2 kts | 54° |
| 2026-05-07 19:01 | 48.35738 | 11.78099 | 1461 ft | 2 kts | 1° |
| 2026-05-07 19:01 | 48.35721 | 11.78098 | 1469 ft | 1 kts | 349° |
| 2026-05-07 19:02 | 48.35721 | 11.78099 | 1469 ft | 0 kts | 349° |
| 2026-05-07 19:05 | 48.35724 | 11.78098 | 1468 ft | 2 kts | 349° |
| 2026-05-07 19:05 | 48.35756 | 11.78088 | 1471 ft | 8 kts | 344° |
| 2026-05-07 19:06 | 48.35793 | 11.78032 | 1470 ft | 8 kts | 281° |
| 2026-05-07 19:06 | 48.35796 | 11.77871 | 1469 ft | 8 kts | 307° |
| 2026-05-07 19:06 | 48.35842 | 11.77857 | 1473 ft | 6 kts | 356° |
| 2026-05-07 19:07 | 48.35872 | 11.77854 | 1470 ft | 0 kts | 355° |
| 2026-05-07 19:07 | 48.35877 | 11.77853 | 1464 ft | 2 kts | 355° |
| 2026-05-07 19:08 | 48.35908 | 11.77849 | 1467 ft | 7 kts | 355° |
| 2026-05-07 19:08 | 48.35966 | 11.77854 | 1472 ft | 9 kts | 24° |
| 2026-05-07 19:08 | 48.35989 | 11.77939 | 1467 ft | 9 kts | 83° |
| 2026-05-07 19:08 | 48.35996 | 11.78032 | 1471 ft | 9 kts | 83° |
| 2026-05-07 19:09 | 48.36004 | 11.78128 | 1466 ft | 10 kts | 83° |
| 2026-05-07 19:09 | 48.36012 | 11.78241 | 1471 ft | 12 kts | 83° |
| 2026-05-07 19:09 | 48.36021 | 11.78361 | 1461 ft | 11 kts | 83° |
| 2026-05-07 19:09 | 48.36044 | 11.78469 | 1467 ft | 11 kts | 46° |
| 2026-05-07 19:10 | 48.36117 | 11.78492 | 1470 ft | 11 kts | 21° |
| 2026-05-07 19:10 | 48.36147 | 11.78593 | 1469 ft | 12 kts | 83° |
| 2026-05-07 19:10 | 48.36158 | 11.78729 | 1469 ft | 16 kts | 83° |
| 2026-05-07 19:10 | 48.36172 | 11.78907 | 1468 ft | 18 kts | 83° |
| 2026-05-07 19:11 | 48.36187 | 11.79102 | 1468 ft | 20 kts | 84° |
| 2026-05-07 19:11 | 48.36203 | 11.79311 | 1467 ft | 20 kts | 83° |
| 2026-05-07 19:11 | 48.36218 | 11.79521 | 1465 ft | 20 kts | 83° |
| 2026-05-07 19:11 | 48.36235 | 11.79724 | 1465 ft | 19 kts | 81° |
| 2026-05-07 19:12 | 48.36251 | 11.79921 | 1458 ft | 19 kts | 84° |
| 2026-05-07 19:12 | 48.36264 | 11.80111 | 1464 ft | 18 kts | 84° |
| 2026-05-07 19:12 | 48.36278 | 11.80295 | 1464 ft | 17 kts | 83° |
| 2026-05-07 19:12 | 48.36292 | 11.80472 | 1463 ft | 17 kts | 83° |
| 2026-05-07 19:13 | 48.36305 | 11.80646 | 1463 ft | 17 kts | 83° |
| 2026-05-07 19:13 | 48.36319 | 11.80834 | 1462 ft | 19 kts | 83° |
| 2026-05-07 19:13 | 48.36334 | 11.81027 | 1461 ft | 18 kts | 83° |
| 2026-05-07 19:13 | 48.36348 | 11.81211 | 1461 ft | 17 kts | 83° |
| 2026-05-07 19:14 | 48.36362 | 11.81390 | 1460 ft | 17 kts | 83° |
| 2026-05-07 19:14 | 48.36375 | 11.81562 | 1459 ft | 16 kts | 83° |
| 2026-05-07 19:14 | 48.36388 | 11.81730 | 1459 ft | 18 kts | 83° |
| 2026-05-07 19:14 | 48.36395 | 11.81919 | 1458 ft | 18 kts | 102° |
| 2026-05-07 19:15 | 48.36426 | 11.82021 | 1458 ft | 9 kts | 20° |
| 2026-05-07 19:15 | 48.36482 | 11.82007 | 1458 ft | 8 kts | 340° |
| 2026-05-07 19:15 | 48.36551 | 11.81987 | 1458 ft | 14 kts | 352° |
| 2026-05-07 19:15 | 48.36652 | 11.81939 | 1458 ft | 16 kts | 314° |
| 2026-05-07 19:16 | 48.36663 | 11.81776 | 1458 ft | 16 kts | 263° |
| 2026-05-07 19:16 | 48.36641 | 11.81486 | 1460 ft | 54 kts | 263° |
| 2026-05-07 19:16 | 48.36567 | 11.80509 | 1457 ft | 131 kts | 263° |
| 2026-05-07 19:16 | 48.36441 | 11.78840 | 1543 ft | 188 kts | 264° |
| 2026-05-07 19:17 | 48.36265 | 11.76739 | 2108 ft | 209 kts | 263° |
| 2026-05-07 19:17 | 48.36086 | 11.74601 | 3036 ft | 202 kts | 264° |
| 2026-05-07 19:17 | 48.35938 | 11.72547 | 3973 ft | 202 kts | 264° |
| 2026-05-07 19:17 | 48.35781 | 11.70328 | 4259 ft | 222 kts | 264° |
| 2026-05-07 19:18 | 48.35823 | 11.68004 | 4761 ft | 229 kts | 285° |
| 2026-05-07 19:18 | 48.36503 | 11.65785 | 5243 ft | 237 kts | 299° |
| 2026-05-07 19:18 | 48.37369 | 11.63667 | 5824 ft | 240 kts | 301° |
| 2026-05-07 19:18 | 48.38276 | 11.61519 | 6482 ft | 241 kts | 301° |
| 2026-05-07 19:19 | 48.39169 | 11.59391 | 6953 ft | 242 kts | 301° |
| 2026-05-07 19:19 | 48.40064 | 11.57238 | 7043 ft | 242 kts | 300° |
| 2026-05-07 19:19 | 48.40954 | 11.55076 | 7065 ft | 243 kts | 300° |
| 2026-05-07 19:19 | 48.41836 | 11.52919 | 7071 ft | 242 kts | 300° |
| 2026-05-07 19:20 | 48.42712 | 11.50767 | 7072 ft | 243 kts | 300° |
| 2026-05-07 19:20 | 48.43682 | 11.48667 | 7261 ft | 249 kts | 316° |
| 2026-05-07 19:20 | 48.45234 | 11.47523 | 7899 ft | 251 kts | 340° |
| 2026-05-07 19:20 | 48.46928 | 11.46786 | 8488 ft | 254 kts | 340° |
| 2026-05-07 19:21 | 48.48644 | 11.46051 | 9022 ft | 257 kts | 340° |
| 2026-05-07 19:21 | 48.50359 | 11.45311 | 9581 ft | 259 kts | 340° |
| 2026-05-07 19:21 | 48.52107 | 11.44548 | 10117 ft | 261 kts | 339° |
| 2026-05-07 19:21 | 48.53860 | 11.43775 | 10621 ft | 263 kts | 339° |
| 2026-05-07 19:22 | 48.55628 | 11.42989 | 11129 ft | 265 kts | 339° |
| 2026-05-07 19:22 | 48.57410 | 11.42194 | 11646 ft | 268 kts | 339° |
| 2026-05-07 19:22 | 48.59196 | 11.41394 | 12167 ft | 270 kts | 340° |
| 2026-05-07 19:22 | 48.60987 | 11.40571 | 12706 ft | 271 kts | 336° |
| 2026-05-07 19:23 | 48.62678 | 11.39321 | 13233 ft | 271 kts | 327° |
| 2026-05-07 19:23 | 48.64295 | 11.37841 | 13798 ft | 272 kts | 325° |
| 2026-05-07 19:23 | 48.65888 | 11.36325 | 14299 ft | 274 kts | 324° |
| 2026-05-07 19:23 | 48.67506 | 11.34786 | 14824 ft | 275 kts | 325° |
| 2026-05-07 19:24 | 48.69135 | 11.33248 | 15333 ft | 278 kts | 325° |
| 2026-05-07 19:24 | 48.70810 | 11.31679 | 15616 ft | 293 kts | 325° |
| 2026-05-07 19:24 | 48.72613 | 11.29996 | 15766 ft | 317 kts | 326° |
| 2026-05-07 19:24 | 48.74572 | 11.28178 | 15951 ft | 339 kts | 326° |
| 2026-05-07 19:25 | 48.76629 | 11.26277 | 16130 ft | 359 kts | 326° |